sensor_id;sensor_type;location;lat;lon;timestamp;P1;durP1;ratioP1;P2;durP2;ratioP2
21233;SDS011;10774;42.178;26.578;2023-05-20T00:00:06;12.90;;;9.73;;
21233;SDS011;10774;42.178;26.578;2023-05-20T00:02:33;11.48;;;10.25;;
21233;SDS011;10774;42.178;26.578;2023-05-20T00:04:59;15.05;;;11.05;;
21233;SDS011;10774;42.178;26.578;2023-05-20T00:07:24;13.25;;;10.13;;
21233;SDS011;10774;42.178;26.578;2023-05-20T00:09:50;12.93;;;9.45;;
21233;SDS011;10774;42.178;26.578;2023-05-20T00:12:15;12.43;;;9.18;;
21233;SDS011;10774;42.178;26.578;2023-05-20T00:14:41;17.50;;;9.18;;
21233;SDS011;10774;42.178;26.578;2023-05-20T00:17:06;12.68;;;8.85;;
21233;SDS011;10774;42.178;26.578;2023-05-20T00:19:31;13.07;;;8.25;;
21233;SDS011;10774;42.178;26.578;2023-05-20T00:21:57;11.70;;;8.30;;
21233;SDS011;10774;42.178;26.578;2023-05-20T00:24:23;13.75;;;8.13;;
21233;SDS011;10774;42.178;26.578;2023-05-20T00:26:49;12.25;;;8.38;;
21233;SDS011;10774;42.178;26.578;2023-05-20T00:29:14;12.82;;;8.10;;
21233;SDS011;10774;42.178;26.578;2023-05-20T00:31:40;13.10;;;8.60;;
21233;SDS011;10774;42.178;26.578;2023-05-20T00:34:06;11.23;;;8.45;;
21233;SDS011;10774;42.178;26.578;2023-05-20T00:36:32;13.25;;;8.02;;
21233;SDS011;10774;42.178;26.578;2023-05-20T00:38:58;14.80;;;9.23;;
21233;SDS011;10774;42.178;26.578;2023-05-20T00:41:24;13.05;;;8.52;;
21233;SDS011;10774;42.178;26.578;2023-05-20T00:43:53;17.08;;;8.85;;
21233;SDS011;10774;42.178;26.578;2023-05-20T00:46:19;11.52;;;8.55;;
21233;SDS011;10774;42.178;26.578;2023-05-20T00:48:45;9.45;;;7.60;;
21233;SDS011;10774;42.178;26.578;2023-05-20T00:51:11;13.70;;;8.57;;
21233;SDS011;10774;42.178;26.578;2023-05-20T00:53:38;10.63;;;8.85;;
21233;SDS011;10774;42.178;26.578;2023-05-20T00:56:05;13.88;;;9.32;;
21233;SDS011;10774;42.178;26.578;2023-05-20T00:58:32;11.30;;;8.40;;
21233;SDS011;10774;42.178;26.578;2023-05-20T01:00:58;15.18;;;9.85;;
21233;SDS011;10774;42.178;26.578;2023-05-20T01:03:23;12.63;;;8.95;;
21233;SDS011;10774;42.178;26.578;2023-05-20T01:05:49;13.82;;;9.32;;
21233;SDS011;10774;42.178;26.578;2023-05-20T01:08:14;15.13;;;9.00;;
21233;SDS011;10774;42.178;26.578;2023-05-20T01:10:41;18.13;;;9.18;;
21233;SDS011;10774;42.178;26.578;2023-05-20T01:13:10;13.10;;;8.73;;
21233;SDS011;10774;42.178;26.578;2023-05-20T01:15:41;16.00;;;8.45;;
21233;SDS011;10774;42.178;26.578;2023-05-20T01:18:09;10.98;;;8.27;;
21233;SDS011;10774;42.178;26.578;2023-05-20T01:20:36;10.10;;;8.35;;
21233;SDS011;10774;42.178;26.578;2023-05-20T01:23:02;11.98;;;8.82;;
21233;SDS011;10774;42.178;26.578;2023-05-20T01:25:28;11.43;;;8.32;;
21233;SDS011;10774;42.178;26.578;2023-05-20T01:27:54;13.45;;;8.75;;
21233;SDS011;10774;42.178;26.578;2023-05-20T01:30:32;12.30;;;9.20;;
21233;SDS011;10774;42.178;26.578;2023-05-20T01:33:06;12.05;;;8.95;;
21233;SDS011;10774;42.178;26.578;2023-05-20T01:35:35;16.83;;;9.55;;
21233;SDS011;10774;42.178;26.578;2023-05-20T01:38:02;15.82;;;9.40;;
21233;SDS011;10774;42.178;26.578;2023-05-20T01:40:30;13.95;;;9.23;;
21233;SDS011;10774;42.178;26.578;2023-05-20T01:42:58;11.55;;;9.50;;
21233;SDS011;10774;42.178;26.578;2023-05-20T01:45:24;15.52;;;10.65;;
21233;SDS011;10774;42.178;26.578;2023-05-20T01:47:50;14.85;;;9.40;;
21233;SDS011;10774;42.178;26.578;2023-05-20T01:50:16;12.32;;;8.52;;
21233;SDS011;10774;42.178;26.578;2023-05-20T01:52:41;13.00;;;9.75;;
21233;SDS011;10774;42.178;26.578;2023-05-20T01:55:07;13.25;;;9.50;;
21233;SDS011;10774;42.178;26.578;2023-05-20T01:57:32;13.38;;;8.90;;
21233;SDS011;10774;42.178;26.578;2023-05-20T01:59:58;10.43;;;9.20;;
21233;SDS011;10774;42.178;26.578;2023-05-20T02:02:23;10.75;;;9.63;;
21233;SDS011;10774;42.178;26.578;2023-05-20T02:04:49;12.98;;;9.45;;
21233;SDS011;10774;42.178;26.578;2023-05-20T02:07:16;13.27;;;9.95;;
21233;SDS011;10774;42.178;26.578;2023-05-20T02:09:45;11.77;;;9.50;;
21233;SDS011;10774;42.178;26.578;2023-05-20T02:12:11;13.68;;;10.10;;
21233;SDS011;10774;42.178;26.578;2023-05-20T02:14:44;13.63;;;9.68;;
21233;SDS011;10774;42.178;26.578;2023-05-20T02:17:10;14.38;;;9.93;;
21233;SDS011;10774;42.178;26.578;2023-05-20T02:19:36;16.30;;;8.90;;
21233;SDS011;10774;42.178;26.578;2023-05-20T02:22:02;11.68;;;8.63;;
21233;SDS011;10774;42.178;26.578;2023-05-20T02:24:27;12.93;;;8.60;;
21233;SDS011;10774;42.178;26.578;2023-05-20T02:26:53;11.88;;;8.93;;
21233;SDS011;10774;42.178;26.578;2023-05-20T02:29:19;11.75;;;8.50;;
21233;SDS011;10774;42.178;26.578;2023-05-20T02:31:46;13.63;;;9.57;;
21233;SDS011;10774;42.178;26.578;2023-05-20T02:34:14;16.30;;;9.65;;
21233;SDS011;10774;42.178;26.578;2023-05-20T02:36:42;12.77;;;9.35;;
21233;SDS011;10774;42.178;26.578;2023-05-20T02:39:08;12.55;;;9.23;;
21233;SDS011;10774;42.178;26.578;2023-05-20T02:41:34;11.07;;;8.20;;
21233;SDS011;10774;42.178;26.578;2023-05-20T02:44:00;10.35;;;8.35;;
21233;SDS011;10774;42.178;26.578;2023-05-20T02:46:25;10.80;;;8.15;;
21233;SDS011;10774;42.178;26.578;2023-05-20T02:48:51;12.52;;;9.05;;
21233;SDS011;10774;42.178;26.578;2023-05-20T02:51:16;13.23;;;8.50;;
21233;SDS011;10774;42.178;26.578;2023-05-20T02:53:41;10.77;;;8.02;;
21233;SDS011;10774;42.178;26.578;2023-05-20T02:56:07;13.18;;;9.10;;
21233;SDS011;10774;42.178;26.578;2023-05-20T02:58:35;12.52;;;9.15;;
21233;SDS011;10774;42.178;26.578;2023-05-20T03:01:01;14.20;;;8.48;;
21233;SDS011;10774;42.178;26.578;2023-05-20T03:03:27;16.33;;;8.48;;
21233;SDS011;10774;42.178;26.578;2023-05-20T03:05:53;10.85;;;8.77;;
21233;SDS011;10774;42.178;26.578;2023-05-20T03:08:19;12.55;;;8.07;;
21233;SDS011;10774;42.178;26.578;2023-05-20T03:10:45;11.07;;;8.35;;
21233;SDS011;10774;42.178;26.578;2023-05-20T03:13:11;10.25;;;7.88;;
21233;SDS011;10774;42.178;26.578;2023-05-20T03:15:37;9.77;;;8.27;;
21233;SDS011;10774;42.178;26.578;2023-05-20T03:18:03;12.82;;;8.38;;
21233;SDS011;10774;42.178;26.578;2023-05-20T03:20:30;11.23;;;8.32;;
21233;SDS011;10774;42.178;26.578;2023-05-20T03:23:01;20.40;;;13.55;;
21233;SDS011;10774;42.178;26.578;2023-05-20T03:25:26;18.25;;;13.52;;
21233;SDS011;10774;42.178;26.578;2023-05-20T03:27:52;18.67;;;13.50;;
21233;SDS011;10774;42.178;26.578;2023-05-20T03:30:18;23.00;;;14.68;;
21233;SDS011;10774;42.178;26.578;2023-05-20T03:32:43;19.23;;;13.05;;
21233;SDS011;10774;42.178;26.578;2023-05-20T03:35:09;16.25;;;13.20;;
21233;SDS011;10774;42.178;26.578;2023-05-20T03:37:35;15.18;;;11.05;;
21233;SDS011;10774;42.178;26.578;2023-05-20T03:40:01;14.65;;;12.00;;
21233;SDS011;10774;42.178;26.578;2023-05-20T03:42:30;16.25;;;11.23;;
21233;SDS011;10774;42.178;26.578;2023-05-20T03:44:55;15.57;;;9.98;;
21233;SDS011;10774;42.178;26.578;2023-05-20T03:47:21;14.43;;;10.15;;
21233;SDS011;10774;42.178;26.578;2023-05-20T03:49:46;19.75;;;14.65;;
21233;SDS011;10774;42.178;26.578;2023-05-20T03:52:12;30.08;;;21.05;;
21233;SDS011;10774;42.178;26.578;2023-05-20T03:54:37;14.95;;;10.70;;
21233;SDS011;10774;42.178;26.578;2023-05-20T03:57:03;14.13;;;9.93;;
21233;SDS011;10774;42.178;26.578;2023-05-20T03:59:28;14.88;;;9.52;;
21233;SDS011;10774;42.178;26.578;2023-05-20T04:01:53;13.60;;;9.25;;
21233;SDS011;10774;42.178;26.578;2023-05-20T04:04:21;13.32;;;9.27;;
21233;SDS011;10774;42.178;26.578;2023-05-20T04:06:46;11.05;;;8.32;;
21233;SDS011;10774;42.178;26.578;2023-05-20T04:09:11;21.15;;;12.30;;
21233;SDS011;10774;42.178;26.578;2023-05-20T04:11:37;28.58;;;14.32;;
21233;SDS011;10774;42.178;26.578;2023-05-20T04:14:03;54.58;;;24.70;;
21233;SDS011;10774;42.178;26.578;2023-05-20T04:16:29;64.10;;;29.38;;
21233;SDS011;10774;42.178;26.578;2023-05-20T04:18:54;62.03;;;28.00;;
21233;SDS011;10774;42.178;26.578;2023-05-20T04:21:23;54.70;;;30.98;;
21233;SDS011;10774;42.178;26.578;2023-05-20T04:23:48;58.58;;;31.25;;
21233;SDS011;10774;42.178;26.578;2023-05-20T04:26:14;37.58;;;22.27;;
21233;SDS011;10774;42.178;26.578;2023-05-20T04:28:39;19.25;;;12.77;;
21233;SDS011;10774;42.178;26.578;2023-05-20T04:31:06;16.13;;;9.50;;
21233;SDS011;10774;42.178;26.578;2023-05-20T04:33:32;15.38;;;9.10;;
21233;SDS011;10774;42.178;26.578;2023-05-20T04:36:01;14.02;;;9.57;;
21233;SDS011;10774;42.178;26.578;2023-05-20T04:38:29;18.17;;;10.10;;
21233;SDS011;10774;42.178;26.578;2023-05-20T04:40:56;18.17;;;12.15;;
21233;SDS011;10774;42.178;26.578;2023-05-20T04:43:25;18.02;;;12.45;;
21233;SDS011;10774;42.178;26.578;2023-05-20T04:45:54;19.73;;;11.32;;
21233;SDS011;10774;42.178;26.578;2023-05-20T04:48:20;12.40;;;8.88;;
21233;SDS011;10774;42.178;26.578;2023-05-20T04:50:46;10.80;;;7.50;;
21233;SDS011;10774;42.178;26.578;2023-05-20T04:53:13;9.57;;;7.38;;
21233;SDS011;10774;42.178;26.578;2023-05-20T04:55:39;12.65;;;7.88;;
21233;SDS011;10774;42.178;26.578;2023-05-20T04:58:05;13.80;;;7.88;;
21233;SDS011;10774;42.178;26.578;2023-05-20T05:00:32;9.25;;;7.45;;
21233;SDS011;10774;42.178;26.578;2023-05-20T05:02:57;12.05;;;7.80;;
21233;SDS011;10774;42.178;26.578;2023-05-20T05:05:23;14.07;;;7.90;;
21233;SDS011;10774;42.178;26.578;2023-05-20T05:07:49;11.25;;;8.32;;
21233;SDS011;10774;42.178;26.578;2023-05-20T05:10:14;12.07;;;9.43;;
21233;SDS011;10774;42.178;26.578;2023-05-20T05:12:40;82.85;;;14.57;;
21233;SDS011;10774;42.178;26.578;2023-05-20T05:15:05;13.73;;;9.65;;
21233;SDS011;10774;42.178;26.578;2023-05-20T05:17:31;15.80;;;10.40;;
21233;SDS011;10774;42.178;26.578;2023-05-20T05:19:56;16.48;;;10.98;;
21233;SDS011;10774;42.178;26.578;2023-05-20T05:22:22;13.43;;;10.70;;
21233;SDS011;10774;42.178;26.578;2023-05-20T05:24:47;18.77;;;13.77;;
21233;SDS011;10774;42.178;26.578;2023-05-20T05:27:13;18.05;;;12.43;;
21233;SDS011;10774;42.178;26.578;2023-05-20T05:29:38;20.05;;;13.20;;
21233;SDS011;10774;42.178;26.578;2023-05-20T05:32:04;15.52;;;10.40;;
21233;SDS011;10774;42.178;26.578;2023-05-20T05:34:29;11.52;;;9.63;;
21233;SDS011;10774;42.178;26.578;2023-05-20T05:36:55;13.45;;;10.02;;
21233;SDS011;10774;42.178;26.578;2023-05-20T05:39:20;14.57;;;9.82;;
21233;SDS011;10774;42.178;26.578;2023-05-20T05:41:46;14.85;;;10.77;;
21233;SDS011;10774;42.178;26.578;2023-05-20T05:44:11;15.75;;;10.05;;
21233;SDS011;10774;42.178;26.578;2023-05-20T05:46:37;12.65;;;9.85;;
21233;SDS011;10774;42.178;26.578;2023-05-20T05:49:02;15.27;;;10.00;;
21233;SDS011;10774;42.178;26.578;2023-05-20T05:51:27;16.80;;;10.57;;
21233;SDS011;10774;42.178;26.578;2023-05-20T05:53:53;17.20;;;10.50;;
21233;SDS011;10774;42.178;26.578;2023-05-20T05:56:18;11.65;;;9.88;;
21233;SDS011;10774;42.178;26.578;2023-05-20T05:58:44;11.75;;;9.32;;
21233;SDS011;10774;42.178;26.578;2023-05-20T06:01:09;12.23;;;8.53;;
21233;SDS011;10774;42.178;26.578;2023-05-20T06:03:35;13.25;;;8.50;;
21233;SDS011;10774;42.178;26.578;2023-05-20T06:06:00;14.88;;;9.00;;
21233;SDS011;10774;42.178;26.578;2023-05-20T06:08:26;11.43;;;9.25;;
21233;SDS011;10774;42.178;26.578;2023-05-20T06:10:51;11.48;;;9.23;;
21233;SDS011;10774;42.178;26.578;2023-05-20T06:13:17;11.40;;;8.15;;
21233;SDS011;10774;42.178;26.578;2023-05-20T06:15:42;11.15;;;8.60;;
21233;SDS011;10774;42.178;26.578;2023-05-20T06:18:10;14.38;;;8.23;;
21233;SDS011;10774;42.178;26.578;2023-05-20T06:20:36;13.00;;;8.48;;
21233;SDS011;10774;42.178;26.578;2023-05-20T06:23:02;12.95;;;8.80;;
21233;SDS011;10774;42.178;26.578;2023-05-20T06:25:27;11.15;;;8.45;;
21233;SDS011;10774;42.178;26.578;2023-05-20T06:27:53;13.00;;;9.40;;
21233;SDS011;10774;42.178;26.578;2023-05-20T06:30:18;10.93;;;7.95;;
21233;SDS011;10774;42.178;26.578;2023-05-20T06:32:44;11.63;;;9.00;;
21233;SDS011;10774;42.178;26.578;2023-05-20T06:35:10;10.23;;;8.40;;
21233;SDS011;10774;42.178;26.578;2023-05-20T06:37:36;10.93;;;8.98;;
21233;SDS011;10774;42.178;26.578;2023-05-20T06:40:01;13.40;;;9.35;;
21233;SDS011;10774;42.178;26.578;2023-05-20T06:42:27;17.70;;;13.93;;
21233;SDS011;10774;42.178;26.578;2023-05-20T06:44:53;19.20;;;12.45;;
21233;SDS011;10774;42.178;26.578;2023-05-20T06:47:18;22.23;;;13.30;;
21233;SDS011;10774;42.178;26.578;2023-05-20T06:49:44;12.23;;;10.93;;
21233;SDS011;10774;42.178;26.578;2023-05-20T06:52:09;12.73;;;9.50;;
21233;SDS011;10774;42.178;26.578;2023-05-20T06:54:36;11.82;;;8.70;;
21233;SDS011;10774;42.178;26.578;2023-05-20T06:57:08;19.70;;;9.27;;
21233;SDS011;10774;42.178;26.578;2023-05-20T06:59:34;8.45;;;6.95;;
21233;SDS011;10774;42.178;26.578;2023-05-20T07:02:03;13.15;;;7.35;;
21233;SDS011;10774;42.178;26.578;2023-05-20T07:04:29;9.07;;;7.15;;
21233;SDS011;10774;42.178;26.578;2023-05-20T07:06:54;8.25;;;7.35;;
21233;SDS011;10774;42.178;26.578;2023-05-20T07:09:20;7.88;;;7.00;;
21233;SDS011;10774;42.178;26.578;2023-05-20T07:11:45;9.55;;;7.63;;
21233;SDS011;10774;42.178;26.578;2023-05-20T07:14:10;12.55;;;6.93;;
21233;SDS011;10774;42.178;26.578;2023-05-20T07:16:36;10.43;;;6.63;;
21233;SDS011;10774;42.178;26.578;2023-05-20T07:19:02;16.60;;;7.43;;
21233;SDS011;10774;42.178;26.578;2023-05-20T07:21:28;14.23;;;9.35;;
21233;SDS011;10774;42.178;26.578;2023-05-20T07:23:53;14.07;;;10.05;;
21233;SDS011;10774;42.178;26.578;2023-05-20T07:26:19;9.00;;;6.88;;
21233;SDS011;10774;42.178;26.578;2023-05-20T07:28:45;10.73;;;8.60;;
21233;SDS011;10774;42.178;26.578;2023-05-20T07:31:11;11.50;;;6.75;;
21233;SDS011;10774;42.178;26.578;2023-05-20T07:33:36;6.97;;;5.72;;
21233;SDS011;10774;42.178;26.578;2023-05-20T07:36:02;10.35;;;6.25;;
21233;SDS011;10774;42.178;26.578;2023-05-20T07:38:28;8.82;;;5.72;;
21233;SDS011;10774;42.178;26.578;2023-05-20T07:40:53;8.98;;;5.90;;
21233;SDS011;10774;42.178;26.578;2023-05-20T07:43:19;10.15;;;6.50;;
21233;SDS011;10774;42.178;26.578;2023-05-20T07:45:44;10.45;;;6.20;;
21233;SDS011;10774;42.178;26.578;2023-05-20T07:48:09;10.70;;;7.05;;
21233;SDS011;10774;42.178;26.578;2023-05-20T07:50:36;8.02;;;6.10;;
21233;SDS011;10774;42.178;26.578;2023-05-20T07:53:03;10.65;;;6.78;;
21233;SDS011;10774;42.178;26.578;2023-05-20T07:55:29;12.32;;;6.85;;
21233;SDS011;10774;42.178;26.578;2023-05-20T07:57:55;10.88;;;7.57;;
21233;SDS011;10774;42.178;26.578;2023-05-20T08:00:20;8.18;;;5.82;;
21233;SDS011;10774;42.178;26.578;2023-05-20T08:02:46;8.50;;;6.10;;
21233;SDS011;10774;42.178;26.578;2023-05-20T08:05:11;19.20;;;7.50;;
21233;SDS011;10774;42.178;26.578;2023-05-20T08:07:37;11.05;;;6.70;;
21233;SDS011;10774;42.178;26.578;2023-05-20T08:10:02;8.02;;;6.40;;
21233;SDS011;10774;42.178;26.578;2023-05-20T08:12:28;9.65;;;6.28;;
21233;SDS011;10774;42.178;26.578;2023-05-20T08:14:53;8.25;;;5.95;;
21233;SDS011;10774;42.178;26.578;2023-05-20T08:17:19;8.63;;;6.57;;
21233;SDS011;10774;42.178;26.578;2023-05-20T08:19:44;9.65;;;6.03;;
21233;SDS011;10774;42.178;26.578;2023-05-20T08:22:10;14.93;;;8.00;;
21233;SDS011;10774;42.178;26.578;2023-05-20T08:24:37;8.20;;;5.88;;
21233;SDS011;10774;42.178;26.578;2023-05-20T08:27:02;9.88;;;6.13;;
21233;SDS011;10774;42.178;26.578;2023-05-20T08:29:29;13.52;;;6.30;;
21233;SDS011;10774;42.178;26.578;2023-05-20T08:31:54;9.25;;;6.22;;
21233;SDS011;10774;42.178;26.578;2023-05-20T08:34:21;8.20;;;5.20;;
21233;SDS011;10774;42.178;26.578;2023-05-20T08:36:46;7.82;;;5.70;;
21233;SDS011;10774;42.178;26.578;2023-05-20T08:39:12;10.32;;;6.05;;
21233;SDS011;10774;42.178;26.578;2023-05-20T08:41:38;8.93;;;5.85;;
21233;SDS011;10774;42.178;26.578;2023-05-20T08:44:03;6.13;;;5.18;;
21233;SDS011;10774;42.178;26.578;2023-05-20T08:46:30;9.10;;;5.80;;
21233;SDS011;10774;42.178;26.578;2023-05-20T08:48:58;6.90;;;5.43;;
21233;SDS011;10774;42.178;26.578;2023-05-20T08:51:23;8.13;;;5.53;;
21233;SDS011;10774;42.178;26.578;2023-05-20T08:53:51;8.30;;;6.00;;
21233;SDS011;10774;42.178;26.578;2023-05-20T08:56:17;9.52;;;6.53;;
21233;SDS011;10774;42.178;26.578;2023-05-20T08:58:43;8.45;;;5.72;;
21233;SDS011;10774;42.178;26.578;2023-05-20T09:01:10;8.65;;;6.32;;
21233;SDS011;10774;42.178;26.578;2023-05-20T09:03:36;9.00;;;5.57;;
21233;SDS011;10774;42.178;26.578;2023-05-20T09:06:02;11.15;;;6.05;;
21233;SDS011;10774;42.178;26.578;2023-05-20T09:08:31;8.27;;;6.05;;
21233;SDS011;10774;42.178;26.578;2023-05-20T09:10:57;9.48;;;6.90;;
21233;SDS011;10774;42.178;26.578;2023-05-20T09:13:23;7.78;;;5.35;;
21233;SDS011;10774;42.178;26.578;2023-05-20T09:15:48;10.65;;;6.03;;
21233;SDS011;10774;42.178;26.578;2023-05-20T09:18:14;10.20;;;5.40;;
21233;SDS011;10774;42.178;26.578;2023-05-20T09:20:39;9.80;;;5.20;;
21233;SDS011;10774;42.178;26.578;2023-05-20T09:23:06;8.80;;;5.30;;
21233;SDS011;10774;42.178;26.578;2023-05-20T09:25:33;12.25;;;5.47;;
21233;SDS011;10774;42.178;26.578;2023-05-20T09:28:00;8.20;;;4.80;;
21233;SDS011;10774;42.178;26.578;2023-05-20T09:30:28;7.68;;;5.10;;
21233;SDS011;10774;42.178;26.578;2023-05-20T09:32:54;7.88;;;5.07;;
21233;SDS011;10774;42.178;26.578;2023-05-20T09:35:21;9.10;;;4.65;;
21233;SDS011;10774;42.178;26.578;2023-05-20T09:37:48;9.35;;;5.30;;
21233;SDS011;10774;42.178;26.578;2023-05-20T09:40:17;10.90;;;5.90;;
21233;SDS011;10774;42.178;26.578;2023-05-20T09:43:04;8.32;;;5.13;;
21233;SDS011;10774;42.178;26.578;2023-05-20T09:45:31;10.10;;;5.35;;
21233;SDS011;10774;42.178;26.578;2023-05-20T09:47:57;11.23;;;5.13;;
21233;SDS011;10774;42.178;26.578;2023-05-20T09:50:24;7.85;;;5.00;;
21233;SDS011;10774;42.178;26.578;2023-05-20T09:52:51;7.28;;;5.00;;
21233;SDS011;10774;42.178;26.578;2023-05-20T09:55:18;8.38;;;5.15;;
21233;SDS011;10774;42.178;26.578;2023-05-20T09:57:45;9.20;;;5.18;;
21233;SDS011;10774;42.178;26.578;2023-05-20T10:00:11;6.35;;;4.88;;
21233;SDS011;10774;42.178;26.578;2023-05-20T10:02:46;8.05;;;5.28;;
21233;SDS011;10774;42.178;26.578;2023-05-20T10:05:14;6.85;;;4.78;;
21233;SDS011;10774;42.178;26.578;2023-05-20T10:10:26;9.43;;;5.28;;
21233;SDS011;10774;42.178;26.578;2023-05-20T10:13:10;7.00;;;4.85;;
21233;SDS011;10774;42.178;26.578;2023-05-20T10:16:01;9.25;;;4.53;;
21233;SDS011;10774;42.178;26.578;2023-05-20T10:21:17;6.32;;;4.03;;
21233;SDS011;10774;42.178;26.578;2023-05-20T10:23:46;6.85;;;4.15;;
21233;SDS011;10774;42.178;26.578;2023-05-20T10:26:11;8.07;;;4.45;;
21233;SDS011;10774;42.178;26.578;2023-05-20T10:28:38;12.48;;;4.18;;
21233;SDS011;10774;42.178;26.578;2023-05-20T10:31:14;7.57;;;4.03;;
21233;SDS011;10774;42.178;26.578;2023-05-20T10:33:42;6.75;;;4.22;;
21233;SDS011;10774;42.178;26.578;2023-05-20T10:36:08;12.10;;;4.75;;
21233;SDS011;10774;42.178;26.578;2023-05-20T10:38:34;7.18;;;4.90;;
21233;SDS011;10774;42.178;26.578;2023-05-20T10:41:08;5.78;;;3.47;;
21233;SDS011;10774;42.178;26.578;2023-05-20T10:43:35;8.10;;;4.72;;
21233;SDS011;10774;42.178;26.578;2023-05-20T10:46:01;8.88;;;4.57;;
21233;SDS011;10774;42.178;26.578;2023-05-20T10:48:28;13.70;;;4.50;;
21233;SDS011;10774;42.178;26.578;2023-05-20T10:50:56;7.78;;;4.38;;
21233;SDS011;10774;42.178;26.578;2023-05-20T10:53:23;10.95;;;4.57;;
21233;SDS011;10774;42.178;26.578;2023-05-20T10:55:50;7.55;;;4.43;;
21233;SDS011;10774;42.178;26.578;2023-05-20T10:58:17;7.85;;;4.47;;
21233;SDS011;10774;42.178;26.578;2023-05-20T11:00:46;5.45;;;4.20;;
21233;SDS011;10774;42.178;26.578;2023-05-20T11:03:13;7.60;;;4.35;;
21233;SDS011;10774;42.178;26.578;2023-05-20T11:05:40;8.13;;;4.78;;
21233;SDS011;10774;42.178;26.578;2023-05-20T11:08:06;8.93;;;4.38;;
21233;SDS011;10774;42.178;26.578;2023-05-20T11:10:36;11.88;;;4.70;;
21233;SDS011;10774;42.178;26.578;2023-05-20T11:13:02;6.85;;;4.60;;
21233;SDS011;10774;42.178;26.578;2023-05-20T11:15:28;9.55;;;4.50;;
21233;SDS011;10774;42.178;26.578;2023-05-20T11:17:55;7.30;;;3.75;;
21233;SDS011;10774;42.178;26.578;2023-05-20T11:20:23;5.70;;;4.07;;
21233;SDS011;10774;42.178;26.578;2023-05-20T11:22:50;7.65;;;3.97;;
21233;SDS011;10774;42.178;26.578;2023-05-20T11:25:17;6.95;;;4.53;;
21233;SDS011;10774;42.178;26.578;2023-05-20T11:27:43;8.52;;;4.15;;
21233;SDS011;10774;42.178;26.578;2023-05-20T11:30:10;7.22;;;3.85;;
21233;SDS011;10774;42.178;26.578;2023-05-20T11:32:37;8.15;;;3.65;;
21233;SDS011;10774;42.178;26.578;2023-05-20T11:35:02;4.55;;;3.55;;
21233;SDS011;10774;42.178;26.578;2023-05-20T11:37:30;10.13;;;6.32;;
21233;SDS011;10774;42.178;26.578;2023-05-20T11:40:02;10.75;;;5.20;;
21233;SDS011;10774;42.178;26.578;2023-05-20T11:42:32;6.78;;;4.20;;
21233;SDS011;10774;42.178;26.578;2023-05-20T11:45:01;7.90;;;4.07;;
21233;SDS011;10774;42.178;26.578;2023-05-20T11:47:27;4.35;;;3.25;;
21233;SDS011;10774;42.178;26.578;2023-05-20T11:49:52;4.75;;;3.22;;
21233;SDS011;10774;42.178;26.578;2023-05-20T11:52:18;7.97;;;3.70;;
21233;SDS011;10774;42.178;26.578;2023-05-20T11:54:43;5.95;;;3.38;;
21233;SDS011;10774;42.178;26.578;2023-05-20T11:57:10;6.68;;;3.53;;
21233;SDS011;10774;42.178;26.578;2023-05-20T11:59:35;5.70;;;3.65;;
21233;SDS011;10774;42.178;26.578;2023-05-20T12:02:01;5.40;;;3.45;;
21233;SDS011;10774;42.178;26.578;2023-05-20T12:04:27;4.38;;;3.33;;
21233;SDS011;10774;42.178;26.578;2023-05-20T12:06:52;6.20;;;3.78;;
21233;SDS011;10774;42.178;26.578;2023-05-20T12:09:17;6.45;;;3.60;;
21233;SDS011;10774;42.178;26.578;2023-05-20T12:11:43;6.18;;;3.97;;
21233;SDS011;10774;42.178;26.578;2023-05-20T12:14:09;6.70;;;3.95;;
21233;SDS011;10774;42.178;26.578;2023-05-20T12:16:35;5.80;;;3.53;;
21233;SDS011;10774;42.178;26.578;2023-05-20T12:19:01;5.75;;;3.92;;
21233;SDS011;10774;42.178;26.578;2023-05-20T12:21:27;6.65;;;4.13;;
21233;SDS011;10774;42.178;26.578;2023-05-20T12:23:53;5.13;;;3.72;;
21233;SDS011;10774;42.178;26.578;2023-05-20T12:26:24;9.77;;;4.13;;
21233;SDS011;10774;42.178;26.578;2023-05-20T12:28:52;5.75;;;4.43;;
21233;SDS011;10774;42.178;26.578;2023-05-20T12:31:18;6.35;;;4.53;;
21233;SDS011;10774;42.178;26.578;2023-05-20T12:33:43;7.80;;;4.63;;
21233;SDS011;10774;42.178;26.578;2023-05-20T12:36:09;6.90;;;4.22;;
21233;SDS011;10774;42.178;26.578;2023-05-20T12:38:35;7.13;;;4.35;;
21233;SDS011;10774;42.178;26.578;2023-05-20T12:41:00;5.93;;;4.10;;
21233;SDS011;10774;42.178;26.578;2023-05-20T12:43:26;6.18;;;4.07;;
21233;SDS011;10774;42.178;26.578;2023-05-20T12:45:52;8.05;;;3.80;;
21233;SDS011;10774;42.178;26.578;2023-05-20T12:48:18;5.85;;;3.47;;
21233;SDS011;10774;42.178;26.578;2023-05-20T12:50:43;7.07;;;4.00;;
21233;SDS011;10774;42.178;26.578;2023-05-20T12:53:09;6.10;;;4.30;;
21233;SDS011;10774;42.178;26.578;2023-05-20T12:55:35;9.27;;;4.82;;
21233;SDS011;10774;42.178;26.578;2023-05-20T12:58:00;8.55;;;4.00;;
21233;SDS011;10774;42.178;26.578;2023-05-20T13:00:25;8.15;;;5.43;;
21233;SDS011;10774;42.178;26.578;2023-05-20T13:02:51;6.28;;;4.28;;
21233;SDS011;10774;42.178;26.578;2023-05-20T13:05:16;9.55;;;5.05;;
21233;SDS011;10774;42.178;26.578;2023-05-20T13:07:42;8.13;;;4.97;;
21233;SDS011;10774;42.178;26.578;2023-05-20T13:10:07;9.30;;;4.47;;
21233;SDS011;10774;42.178;26.578;2023-05-20T13:12:34;7.15;;;4.50;;
21233;SDS011;10774;42.178;26.578;2023-05-20T13:15:00;9.30;;;5.30;;
21233;SDS011;10774;42.178;26.578;2023-05-20T13:17:26;19.50;;;5.38;;
21233;SDS011;10774;42.178;26.578;2023-05-20T13:19:51;7.00;;;4.28;;
21233;SDS011;10774;42.178;26.578;2023-05-20T13:22:16;9.07;;;4.90;;
21233;SDS011;10774;42.178;26.578;2023-05-20T13:24:42;8.77;;;4.90;;
21233;SDS011;10774;42.178;26.578;2023-05-20T13:27:07;5.65;;;4.43;;
21233;SDS011;10774;42.178;26.578;2023-05-20T13:29:33;6.35;;;4.10;;
21233;SDS011;10774;42.178;26.578;2023-05-20T13:31:58;6.05;;;4.22;;
21233;SDS011;10774;42.178;26.578;2023-05-20T13:34:23;6.95;;;4.45;;
21233;SDS011;10774;42.178;26.578;2023-05-20T13:36:49;6.55;;;4.55;;
21233;SDS011;10774;42.178;26.578;2023-05-20T13:39:15;6.50;;;4.63;;
21233;SDS011;10774;42.178;26.578;2023-05-20T13:41:41;7.53;;;5.03;;
21233;SDS011;10774;42.178;26.578;2023-05-20T13:44:06;7.13;;;4.82;;
21233;SDS011;10774;42.178;26.578;2023-05-20T13:46:32;7.85;;;4.82;;
21233;SDS011;10774;42.178;26.578;2023-05-20T13:48:57;8.57;;;5.38;;
21233;SDS011;10774;42.178;26.578;2023-05-20T13:51:23;9.77;;;5.00;;
21233;SDS011;10774;42.178;26.578;2023-05-20T13:53:48;7.10;;;5.00;;
21233;SDS011;10774;42.178;26.578;2023-05-20T13:56:14;12.38;;;5.40;;
21233;SDS011;10774;42.178;26.578;2023-05-20T13:58:39;7.93;;;5.00;;
21233;SDS011;10774;42.178;26.578;2023-05-20T14:01:05;7.57;;;4.90;;
21233;SDS011;10774;42.178;26.578;2023-05-20T14:03:31;7.63;;;4.88;;
21233;SDS011;10774;42.178;26.578;2023-05-20T14:06:01;7.25;;;4.78;;
21233;SDS011;10774;42.178;26.578;2023-05-20T14:08:26;8.90;;;4.88;;
21233;SDS011;10774;42.178;26.578;2023-05-20T14:10:52;8.05;;;5.43;;
21233;SDS011;10774;42.178;26.578;2023-05-20T14:13:22;8.45;;;6.68;;
21233;SDS011;10774;42.178;26.578;2023-05-20T14:15:49;8.52;;;5.85;;
21233;SDS011;10774;42.178;26.578;2023-05-20T14:18:18;8.55;;;4.97;;
21233;SDS011;10774;42.178;26.578;2023-05-20T14:20:44;7.95;;;4.55;;
21233;SDS011;10774;42.178;26.578;2023-05-20T14:23:09;9.15;;;4.55;;
21233;SDS011;10774;42.178;26.578;2023-05-20T14:25:35;7.30;;;5.30;;